createdAt,value
2019-03-08T00:00:57.335Z,1.70
2019-03-08T00:02:01.440Z,1.52
2019-03-08T00:03:05.651Z,1.75
2019-03-08T00:04:09.886Z,1.57
2019-03-08T00:05:14.091Z,1.40
2019-03-08T00:06:18.305Z,1.42
2019-03-08T00:07:22.597Z,1.42
2019-03-08T00:08:26.971Z,1.30
2019-03-08T00:09:31.196Z,1.10
2019-03-08T00:10:35.306Z,1.67
2019-03-08T00:11:39.527Z,1.30
2019-03-08T00:12:43.747Z,1.30
2019-03-08T00:13:47.975Z,1.52
2019-03-08T00:14:52.072Z,1.60
2019-03-08T00:15:56.243Z,1.70
2019-03-08T00:17:00.416Z,1.20
2019-03-08T00:18:04.568Z,1.67
2019-03-08T00:19:10.273Z,1.37
2019-03-08T00:20:14.562Z,1.52
2019-03-08T00:21:18.663Z,1.17
2019-03-08T00:22:22.781Z,1.50
2019-03-08T00:23:26.993Z,1.32
2019-03-08T00:24:31.335Z,1.32
2019-03-08T00:25:35.710Z,2.02
2019-03-08T00:26:39.881Z,1.90
2019-03-08T00:27:44.006Z,2.00
2019-03-08T00:28:48.323Z,1.30
2019-03-08T00:29:52.439Z,1.45
2019-03-08T00:30:56.620Z,1.35
2019-03-08T00:32:00.815Z,1.70
2019-03-08T00:33:04.940Z,2.33
2019-03-08T00:34:09.130Z,1.70
2019-03-08T00:35:13.312Z,1.45
2019-03-08T00:36:17.579Z,1.30
2019-03-08T00:37:21.723Z,1.62
2019-03-08T00:38:25.924Z,1.50
2019-03-08T00:39:30.098Z,1.77
2019-03-08T00:40:34.271Z,1.57
2019-03-08T00:41:38.653Z,1.40
2019-03-08T00:42:42.806Z,1.80
2019-03-08T00:43:46.906Z,1.40
2019-03-08T00:44:51.270Z,1.42
2019-03-08T00:45:55.415Z,1.25
2019-03-08T00:46:59.658Z,1.20
2019-03-08T00:48:03.799Z,1.40
2019-03-08T00:49:08.146Z,1.17
2019-03-08T00:50:12.307Z,1.47
2019-03-08T00:51:17.939Z,1.40
2019-03-08T00:52:22.108Z,1.40
2019-03-08T00:53:26.320Z,1.40
2019-03-08T00:54:30.439Z,1.40
2019-03-08T00:55:34.690Z,1.60
2019-03-08T00:56:39.733Z,1.60
2019-03-08T00:57:43.992Z,1.77
2019-03-08T00:58:48.442Z,1.62
2019-03-08T00:59:52.837Z,1.70
2019-03-08T01:00:56.983Z,1.40
2019-03-08T01:02:01.166Z,1.40
2019-03-08T01:03:05.280Z,1.32
2019-03-08T01:04:09.396Z,1.25
2019-03-08T01:05:13.638Z,1.60
2019-03-08T01:06:17.745Z,1.50
2019-03-08T01:07:22.019Z,1.35
2019-03-08T01:08:26.248Z,1.40
2019-03-08T01:09:30.428Z,1.45
2019-03-08T01:10:34.597Z,1.45
2019-03-08T01:11:38.794Z,2.15
2019-03-08T01:12:43.060Z,1.90
2019-03-08T01:13:47.264Z,1.20
2019-03-08T01:14:51.452Z,1.60
2019-03-08T01:15:55.801Z,1.30
2019-03-08T01:16:59.983Z,1.57
2019-03-08T01:18:04.128Z,1.40
2019-03-08T01:19:08.280Z,1.22
2019-03-08T01:20:13.455Z,1.60
2019-03-08T01:21:17.563Z,1.35
2019-03-08T01:22:21.751Z,1.10
2019-03-08T01:23:25.913Z,1.27
2019-03-08T01:24:30.083Z,1.37
2019-03-08T01:25:34.203Z,1.40
2019-03-08T01:26:38.367Z,1.12
2019-03-08T01:28:02.314Z,1.40
2019-03-08T01:29:06.427Z,1.25
2019-03-08T01:30:11.394Z,1.98
2019-03-08T01:31:15.603Z,1.40
2019-03-08T01:32:19.759Z,1.50
2019-03-08T01:33:23.919Z,1.20
2019-03-08T01:34:28.100Z,1.10
2019-03-08T01:35:32.259Z,1.30
2019-03-08T01:36:36.424Z,1.30
2019-03-08T01:37:40.640Z,1.47
2019-03-08T01:38:45.007Z,1.20
2019-03-08T01:39:49.095Z,1.40
2019-03-08T01:40:53.195Z,1.65
2019-03-08T01:41:57.305Z,1.47
2019-03-08T01:43:01.502Z,1.65
2019-03-08T01:44:05.683Z,1.35
2019-03-08T01:45:09.859Z,1.50
2019-03-08T01:46:14.055Z,1.40
2019-03-08T01:47:18.227Z,1.30
2019-03-08T01:48:22.441Z,1.40
2019-03-08T01:49:26.611Z,1.22
2019-03-08T01:50:30.798Z,1.37
2019-03-08T01:51:34.946Z,1.12
2019-03-08T01:52:39.053Z,1.17
2019-03-08T01:53:43.259Z,1.30
2019-03-08T01:54:47.456Z,1.50
2019-03-08T01:55:51.854Z,1.30
2019-03-08T01:56:56.023Z,1.40
2019-03-08T01:58:00.211Z,2.50
2019-03-08T01:59:04.388Z,1.25
2019-03-08T02:00:10.824Z,1.37
2019-03-08T02:01:15.030Z,1.15
2019-03-08T02:02:19.178Z,1.50
2019-03-08T02:03:23.387Z,1.32
2019-03-08T02:04:27.487Z,1.20
2019-03-08T02:05:31.702Z,1.50
2019-03-08T02:06:35.871Z,1.37
2019-03-08T02:07:39.992Z,1.40
2019-03-08T02:08:44.184Z,1.05
2019-03-08T02:09:48.518Z,1.60
2019-03-08T02:10:52.584Z,1.52
2019-03-08T02:11:56.765Z,1.55
2019-03-08T02:13:01.139Z,2.02
2019-03-08T02:14:05.310Z,1.50
2019-03-08T02:15:10.667Z,1.45
2019-03-08T02:16:14.839Z,1.82
2019-03-08T02:17:18.970Z,1.75
2019-03-08T02:18:23.123Z,2.20
2019-03-08T02:19:27.343Z,2.00
2019-03-08T02:20:31.535Z,2.30
2019-03-08T02:21:35.745Z,1.80
2019-03-08T02:22:39.891Z,1.92
2019-03-08T02:23:44.079Z,1.70
2019-03-08T02:24:48.179Z,1.82
2019-03-08T02:25:52.359Z,1.40
2019-03-08T02:26:56.504Z,1.55
2019-03-08T02:28:00.608Z,2.20
2019-03-08T02:29:04.692Z,2.25
2019-03-08T02:30:10.964Z,2.02
2019-03-08T02:31:15.114Z,1.47
2019-03-08T02:32:19.311Z,1.70
2019-03-08T02:33:23.495Z,1.57
2019-03-08T02:34:27.619Z,1.50
2019-03-08T02:35:31.863Z,2.12
2019-03-08T02:36:36.069Z,1.50
2019-03-08T02:37:40.306Z,1.12
2019-03-08T02:38:44.474Z,2.05
2019-03-08T02:39:48.593Z,1.75
2019-03-08T02:40:52.705Z,1.57
2019-03-08T02:41:56.819Z,1.37
2019-03-08T02:43:00.976Z,1.52
2019-03-08T02:44:05.084Z,1.42
2019-03-08T02:45:09.330Z,1.37
2019-03-08T02:46:13.506Z,1.70
2019-03-08T02:47:17.954Z,1.20
2019-03-08T02:48:22.075Z,1.50
2019-03-08T02:49:26.279Z,1.30
2019-03-08T02:50:30.414Z,1.50
2019-03-08T02:51:34.587Z,1.87
2019-03-08T02:52:38.801Z,1.57
2019-03-08T02:53:42.952Z,1.85
2019-03-08T02:54:47.171Z,1.57
2019-03-08T02:55:51.269Z,1.52
2019-03-08T02:56:55.511Z,1.45
2019-03-08T02:57:59.622Z,1.57
2019-03-08T02:59:03.775Z,1.40
2019-03-08T03:00:08.275Z,1.40
2019-03-08T03:01:12.418Z,1.20
2019-03-08T03:02:16.615Z,1.60
2019-03-08T03:03:20.824Z,1.87
2019-03-08T03:04:25.264Z,1.70
2019-03-08T03:05:29.401Z,1.40
2019-03-08T03:06:33.562Z,1.52
2019-03-08T03:07:37.656Z,1.77
2019-03-08T03:08:41.859Z,1.37
2019-03-08T03:09:45.962Z,1.10
2019-03-08T03:10:50.171Z,1.47
2019-03-08T03:11:54.319Z,1.27
2019-03-08T03:12:58.491Z,1.50
2019-03-08T03:14:02.618Z,1.35
2019-03-08T03:15:07.188Z,1.40
2019-03-08T03:16:11.388Z,1.40
2019-03-08T03:17:15.555Z,1.57
2019-03-08T03:18:19.752Z,1.80
2019-03-08T03:19:23.902Z,1.70
2019-03-08T03:20:28.077Z,1.27
2019-03-08T03:21:32.460Z,1.37
2019-03-08T03:22:36.673Z,1.52
2019-03-08T03:23:40.871Z,1.50
2019-03-08T03:24:44.999Z,1.47
2019-03-08T03:25:49.066Z,1.40
2019-03-08T03:26:53.287Z,1.95
2019-03-08T03:27:57.373Z,1.52
2019-03-08T03:29:01.697Z,1.30
2019-03-08T03:30:06.461Z,1.47
2019-03-08T03:31:10.609Z,1.92
2019-03-08T03:32:14.722Z,1.75
2019-03-08T03:33:18.888Z,1.10
2019-03-08T03:34:23.030Z,1.35
2019-03-08T03:35:27.220Z,1.57
2019-03-08T03:36:31.402Z,2.10
2019-03-08T03:37:35.569Z,1.52
2019-03-08T03:38:39.935Z,1.55
2019-03-08T03:39:44.028Z,2.00
2019-03-08T03:40:48.086Z,1.25
2019-03-08T03:41:52.264Z,1.82
2019-03-08T03:42:56.447Z,1.50
2019-03-08T03:44:00.556Z,1.22
2019-03-08T03:45:04.856Z,1.90
2019-03-08T03:46:09.035Z,1.90
2019-03-08T03:47:13.103Z,1.50
2019-03-08T03:48:17.235Z,1.50
2019-03-08T03:49:21.419Z,1.42
2019-03-08T03:50:25.613Z,1.57
2019-03-08T03:51:29.758Z,1.65
2019-03-08T03:52:33.939Z,1.30
2019-03-08T03:53:38.035Z,1.30
2019-03-08T03:54:42.343Z,1.27
2019-03-08T03:55:46.696Z,1.30
2019-03-08T03:56:50.847Z,1.35
2019-03-08T03:57:55.036Z,1.50
2019-03-08T03:58:59.200Z,2.00
2019-03-08T04:00:03.807Z,1.30
2019-03-08T04:01:21.190Z,1.87
2019-03-08T04:02:25.365Z,1.47
2019-03-08T04:03:29.486Z,1.25
2019-03-08T04:04:33.112Z,1.50
2019-03-08T04:05:37.312Z,1.35
2019-03-08T04:06:41.391Z,1.50
2019-03-08T04:07:45.459Z,1.10
2019-03-08T04:08:49.539Z,1.47
2019-03-08T04:09:53.635Z,1.62
2019-03-08T04:10:57.798Z,1.60
2019-03-08T04:12:01.886Z,1.20
2019-03-08T04:13:06.046Z,1.80
2019-03-08T04:14:10.456Z,1.80
2019-03-08T04:15:15.108Z,1.80
2019-03-08T04:16:19.399Z,1.90
2019-03-08T04:17:23.554Z,2.37
2019-03-08T04:18:27.616Z,2.33
2019-03-08T04:19:31.829Z,2.77
2019-03-08T04:20:35.977Z,2.27
2019-03-08T04:21:40.086Z,2.08
2019-03-08T04:22:44.565Z,1.80
2019-03-08T04:23:48.766Z,1.37
2019-03-08T04:24:52.878Z,1.90
2019-03-08T04:25:57.011Z,2.27
2019-03-08T04:27:01.123Z,1.90
2019-03-08T04:28:05.303Z,1.70
2019-03-08T04:29:09.396Z,1.47
2019-03-08T04:30:14.754Z,2.05
2019-03-08T04:31:18.824Z,2.25
2019-03-08T04:32:22.977Z,1.55
2019-03-08T04:33:27.140Z,2.12
2019-03-08T04:34:31.249Z,2.22
2019-03-08T04:35:35.411Z,2.40
2019-03-08T04:36:39.504Z,2.40
2019-03-08T04:37:43.571Z,2.50
2019-03-08T04:38:47.642Z,2.25
2019-03-08T04:39:51.745Z,2.33
2019-03-08T04:40:55.811Z,2.08
2019-03-08T04:41:59.884Z,2.20
2019-03-08T04:43:03.938Z,2.33
2019-03-08T04:44:08.040Z,2.12
2019-03-08T04:45:12.296Z,2.02
2019-03-08T04:46:16.384Z,1.70
2019-03-08T04:47:20.454Z,1.92
2019-03-08T04:48:24.700Z,2.12
2019-03-08T04:49:28.843Z,2.00
2019-03-08T04:50:33.012Z,1.87
2019-03-08T04:51:37.072Z,1.80
2019-03-08T04:52:41.161Z,1.60
2019-03-08T04:53:45.311Z,1.30
2019-03-08T04:54:49.378Z,1.40
2019-03-08T04:55:53.457Z,1.50
2019-03-08T04:56:57.515Z,1.20
2019-03-08T04:58:01.605Z,1.75
2019-03-08T04:59:05.739Z,2.08
2019-03-08T05:00:10.995Z,1.50
2019-03-08T05:01:15.140Z,1.65
2019-03-08T05:02:19.312Z,1.22
2019-03-08T05:03:23.465Z,1.42
2019-03-08T05:04:27.624Z,1.47
2019-03-08T05:05:32.023Z,1.37
2019-03-08T05:06:36.151Z,1.10
2019-03-08T05:07:40.225Z,2.00
2019-03-08T05:08:45.773Z,2.47
2019-03-08T05:09:49.929Z,2.27
2019-03-08T05:10:54.011Z,2.20
2019-03-08T05:11:58.073Z,1.80
2019-03-08T05:13:02.165Z,2.12
2019-03-08T05:14:06.354Z,1.65
2019-03-08T05:15:10.483Z,1.60
2019-03-08T05:16:14.585Z,1.60
2019-03-08T05:17:18.677Z,1.72
2019-03-08T05:18:22.814Z,1.40
2019-03-08T05:19:26.871Z,1.65
2019-03-08T05:20:31.034Z,1.47
2019-03-08T05:21:35.287Z,1.65
2019-03-08T05:22:39.677Z,1.10
2019-03-08T05:23:43.847Z,1.25
2019-03-08T05:24:47.952Z,1.30
2019-03-08T05:25:52.243Z,1.05
2019-03-08T05:26:56.407Z,1.10
2019-03-08T05:28:00.475Z,1.47
2019-03-08T05:29:04.610Z,1.12
2019-03-08T05:30:09.294Z,1.20
2019-03-08T05:31:13.480Z,1.47
2019-03-08T05:32:17.538Z,1.75
2019-03-08T05:33:21.623Z,1.45
2019-03-08T05:34:25.763Z,1.55
2019-03-08T05:35:29.839Z,1.50
2019-03-08T05:36:34.002Z,1.07
2019-03-08T05:37:38.164Z,1.47
2019-03-08T05:38:42.507Z,4.70
2019-03-08T05:39:46.604Z,1.87
2019-03-08T05:40:50.760Z,1.47
2019-03-08T05:41:54.995Z,1.52
2019-03-08T05:42:59.167Z,1.60
2019-03-08T05:44:03.239Z,1.77
2019-03-08T05:45:07.380Z,1.77
2019-03-08T05:46:11.483Z,1.65
2019-03-08T05:47:15.618Z,1.42
2019-03-08T05:48:19.698Z,1.37
2019-03-08T05:49:23.886Z,2.08
2019-03-08T05:50:28.067Z,2.22
2019-03-08T05:51:32.135Z,1.65
2019-03-08T05:52:36.223Z,1.50
2019-03-08T05:53:40.396Z,2.00
2019-03-08T05:54:44.754Z,1.70
2019-03-08T05:55:48.912Z,1.72
2019-03-08T05:56:53.030Z,1.72
2019-03-08T05:57:57.236Z,1.62
2019-03-08T05:59:01.347Z,1.60
2019-03-08T06:00:05.893Z,1.70
2019-03-08T06:01:10.044Z,1.75
2019-03-08T06:02:14.239Z,1.35
2019-03-08T06:03:18.419Z,1.65
2019-03-08T06:04:22.583Z,1.85
2019-03-08T06:05:26.674Z,1.90
2019-03-08T06:06:30.903Z,2.02
2019-03-08T06:07:35.156Z,2.17
2019-03-08T06:08:39.447Z,1.65
2019-03-08T06:09:43.728Z,1.42
2019-03-08T06:10:48.015Z,1.65
2019-03-08T06:11:52.067Z,3.30
2019-03-08T06:12:56.319Z,4.70
2019-03-08T06:14:00.488Z,2.30
2019-03-08T06:15:04.727Z,4.42
2019-03-08T06:16:08.817Z,4.20
2019-03-08T06:17:13.066Z,4.12
2019-03-08T06:18:17.249Z,6.35
2019-03-08T06:19:21.567Z,3.50
2019-03-08T06:20:25.662Z,5.10
2019-03-08T06:21:29.938Z,2.47
2019-03-08T06:22:34.055Z,2.20
2019-03-08T06:23:38.187Z,2.20
2019-03-08T06:24:43.303Z,4.65
2019-03-08T06:25:47.379Z,3.37
2019-03-08T06:26:52.284Z,2.55
2019-03-08T06:27:56.414Z,2.30
2019-03-08T06:29:00.623Z,2.45
2019-03-08T06:30:04.974Z,2.05
2019-03-08T06:31:09.253Z,2.37
2019-03-08T06:32:13.385Z,2.95
2019-03-08T06:33:17.679Z,2.70
2019-03-08T06:34:21.767Z,3.15
2019-03-08T06:35:25.929Z,3.65
2019-03-08T06:36:30.084Z,3.08
2019-03-08T06:37:34.254Z,3.52
2019-03-08T06:38:38.380Z,2.75
2019-03-08T06:39:42.529Z,3.25
2019-03-08T06:40:46.622Z,3.05
2019-03-08T06:41:50.792Z,2.85
2019-03-08T06:42:55.297Z,3.10
2019-03-08T06:43:59.459Z,3.83
2019-03-08T06:45:03.584Z,3.52
2019-03-08T06:46:07.755Z,3.20
2019-03-08T06:47:11.903Z,3.45
2019-03-08T06:48:16.083Z,3.37
2019-03-08T06:49:20.258Z,3.37
2019-03-08T06:50:24.335Z,3.33
2019-03-08T06:51:28.573Z,2.77
2019-03-08T06:52:32.660Z,3.65
2019-03-08T06:53:36.871Z,3.80
2019-03-08T06:54:41.051Z,3.60
2019-03-08T06:55:45.152Z,3.60
2019-03-08T06:56:49.334Z,3.85
2019-03-08T06:58:02.382Z,3.27
2019-03-08T06:59:13.618Z,3.72
2019-03-08T07:00:25.414Z,3.85
2019-03-08T07:01:33.510Z,3.45
2019-03-08T07:02:37.704Z,3.60
2019-03-08T07:03:41.878Z,3.22
2019-03-08T07:04:46.070Z,4.37
2019-03-08T07:05:50.335Z,3.65
2019-03-08T07:06:54.494Z,4.20
2019-03-08T07:07:58.577Z,3.85
2019-03-08T07:09:02.816Z,3.70
2019-03-08T07:10:07.315Z,3.83
2019-03-08T07:11:11.395Z,4.00
2019-03-08T07:12:15.494Z,3.77
2019-03-08T07:13:19.735Z,5.50
2019-03-08T07:14:23.955Z,6.85
2019-03-08T07:15:28.045Z,5.55
2019-03-08T07:16:32.140Z,4.70
2019-03-08T07:17:36.305Z,3.85
2019-03-08T07:18:40.480Z,3.30
2019-03-08T07:19:54.799Z,3.85
2019-03-08T07:21:29.703Z,4.08
2019-03-08T07:23:07.844Z,4.37
2019-03-08T07:24:40.257Z,3.87
2019-03-08T07:26:15.135Z,4.33
2019-03-08T07:27:44.603Z,3.15
2019-03-08T07:29:19.773Z,3.27
2019-03-08T07:30:54.898Z,3.87
2019-03-08T07:32:13.207Z,4.05
2019-03-08T07:33:53.381Z,3.87
2019-03-08T07:35:16.206Z,3.75
2019-03-08T07:36:39.307Z,3.72
2019-03-08T07:38:00.728Z,3.52
2019-03-08T07:39:13.959Z,3.12
2019-03-08T07:40:37.076Z,3.98
2019-03-08T07:42:02.984Z,3.65
2019-03-08T07:43:26.334Z,3.70
2019-03-08T07:44:47.899Z,3.83
2019-03-08T07:46:11.307Z,4.15
2019-03-08T07:47:40.260Z,4.08
2019-03-08T07:49:15.567Z,4.00
2019-03-08T07:50:27.671Z,3.70
2019-03-08T07:51:54.547Z,3.98
2019-03-08T07:53:07.115Z,2.92
2019-03-08T07:54:32.907Z,3.62
2019-03-08T07:55:54.393Z,3.20
2019-03-08T07:57:16.097Z,3.40
2019-03-08T07:58:41.898Z,3.70
2019-03-08T08:00:03.438Z,3.95
2019-03-08T08:01:21.755Z,3.30
2019-03-08T08:02:37.889Z,3.50
2019-03-08T08:04:04.019Z,2.80
2019-03-08T08:05:39.215Z,3.52
2019-03-08T08:07:08.393Z,3.10
2019-03-08T08:08:30.130Z,2.60
2019-03-08T08:09:55.811Z,3.15
2019-03-08T08:11:19.049Z,3.00
2019-03-08T08:12:44.952Z,2.90
2019-03-08T08:13:54.695Z,3.27
2019-03-08T08:15:23.772Z,3.33
2019-03-08T08:16:45.259Z,4.03
2019-03-08T08:17:57.414Z,4.22
2019-03-08T08:19:23.543Z,3.98
2019-03-08T08:20:54.289Z,4.03
2019-03-08T08:22:16.050Z,3.62
2019-03-08T08:23:41.935Z,3.50
2019-03-08T08:25:03.646Z,3.50
2019-03-08T08:26:19.918Z,4.22
2019-03-08T08:27:48.976Z,3.27
2019-03-08T08:29:07.299Z,3.80
2019-03-08T08:30:22.327Z,3.72
2019-03-08T08:31:43.815Z,3.95
2019-03-08T08:33:05.563Z,3.58
2019-03-08T08:34:40.658Z,3.55
2019-03-08T08:35:59.911Z,4.05
2019-03-08T08:37:29.163Z,3.83
2019-03-08T08:38:43.388Z,4.20
2019-03-08T08:40:06.852Z,5.72
2019-03-08T08:41:28.463Z,3.50
2019-03-08T08:42:57.327Z,3.67
2019-03-08T08:44:39.067Z,4.03
2019-03-08T08:46:06.248Z,3.83
2019-03-08T08:47:22.938Z,3.65
2019-03-08T08:48:40.218Z,4.55
2019-03-08T08:50:12.460Z,3.90
2019-03-08T08:51:36.078Z,3.87
2019-03-08T08:52:59.210Z,4.10
2019-03-08T08:54:20.776Z,4.20
2019-03-08T08:55:53.099Z,4.30
2019-03-08T08:57:17.363Z,4.62
2019-03-08T08:58:43.510Z,4.78
2019-03-08T09:00:09.406Z,4.72
2019-03-08T09:01:41.594Z,5.83
2019-03-08T09:02:52.227Z,7.17
2019-03-08T09:04:15.483Z,5.17
2019-03-08T09:05:36.088Z,6.85
2019-03-08T09:06:59.219Z,5.85
2019-03-08T09:08:18.546Z,6.15
2019-03-08T09:09:48.083Z,8.23
2019-03-08T09:11:02.644Z,4.60
2019-03-08T09:12:12.268Z,4.70
2019-03-08T09:13:41.068Z,4.62
2019-03-08T09:14:56.647Z,3.80
2019-03-08T09:16:07.889Z,4.45
2019-03-08T09:17:29.368Z,4.55
2019-03-08T09:18:52.496Z,4.42
2019-03-08T09:20:18.451Z,4.15
2019-03-08T09:21:39.360Z,4.60
2019-03-08T09:22:52.464Z,3.62
2019-03-08T09:24:02.643Z,4.85
2019-03-08T09:25:29.171Z,4.97
2019-03-08T09:27:04.127Z,3.98
2019-03-08T09:28:27.259Z,4.60
2019-03-08T09:29:53.383Z,4.65
2019-03-08T09:31:21.199Z,3.37
2019-03-08T09:32:33.355Z,4.67
2019-03-08T09:34:02.236Z,4.20
2019-03-08T09:35:31.143Z,4.00
2019-03-08T09:37:03.139Z,4.60
2019-03-08T09:38:33.098Z,4.62
2019-03-08T09:39:46.462Z,4.37
2019-03-08T09:41:07.911Z,4.37
2019-03-08T09:42:29.573Z,3.98
2019-03-08T09:43:55.576Z,4.47
2019-03-08T09:45:17.364Z,5.25
2019-03-08T09:46:39.028Z,4.78
2019-03-08T09:48:11.163Z,4.42
2019-03-08T09:49:37.307Z,4.17
2019-03-08T09:51:00.401Z,5.28
2019-03-08T09:52:21.898Z,3.58
2019-03-08T09:53:50.975Z,4.17
2019-03-08T09:55:11.648Z,4.42
2019-03-08T09:56:26.708Z,6.08
2019-03-08T09:57:55.562Z,3.95
2019-03-08T09:59:24.763Z,7.08
2019-03-08T10:00:44.198Z,6.17
2019-03-08T10:02:03.981Z,7.58
2019-03-08T10:03:30.190Z,4.90
2019-03-08T10:04:42.039Z,4.30
2019-03-08T10:06:08.183Z,4.55
2019-03-08T10:07:26.286Z,5.85
2019-03-08T10:08:56.404Z,4.33
2019-03-08T10:10:16.113Z,4.60
2019-03-08T10:11:35.075Z,4.50
2019-03-08T10:13:16.380Z,4.83
2019-03-08T10:14:36.154Z,3.98
2019-03-08T10:15:43.567Z,3.50
2019-03-08T10:16:56.641Z,3.65
2019-03-08T10:18:19.794Z,3.85
2019-03-08T10:19:36.056Z,3.40
2019-03-08T10:20:56.114Z,3.50
2019-03-08T10:22:22.010Z,3.08
2019-03-08T10:23:57.050Z,3.22
2019-03-08T10:25:20.071Z,2.90
2019-03-08T10:26:41.401Z,2.83
2019-03-08T10:27:55.527Z,2.83
2019-03-08T10:29:21.577Z,2.72
2019-03-08T10:30:38.015Z,2.60
2019-03-08T10:31:51.939Z,2.83
2019-03-08T10:33:10.132Z,2.40
2019-03-08T10:34:47.979Z,2.25
2019-03-08T10:36:04.682Z,2.50
2019-03-08T10:37:30.499Z,2.15
2019-03-08T10:38:39.542Z,2.10
2019-03-08T10:40:01.210Z,2.77
2019-03-08T10:41:24.792Z,3.00
2019-03-08T10:42:41.243Z,5.97
2019-03-08T10:43:50.033Z,4.83
2019-03-08T10:45:00.023Z,2.65
2019-03-08T10:46:21.667Z,2.33
2019-03-08T10:47:37.289Z,2.83
2019-03-08T10:48:56.348Z,2.50
2019-03-08T10:50:06.250Z,3.70
2019-03-08T10:51:32.409Z,2.92
2019-03-08T10:53:04.275Z,3.02
2019-03-08T10:54:36.200Z,2.80
2019-03-08T10:55:50.751Z,2.90
2019-03-08T10:57:03.091Z,2.55
2019-03-08T10:58:34.322Z,2.62
2019-03-08T10:59:47.409Z,3.42
2019-03-08T11:01:10.431Z,2.95
2019-03-08T11:02:51.842Z,3.05
2019-03-08T11:04:05.882Z,2.98
2019-03-08T11:05:18.614Z,2.02
2019-03-08T11:06:28.882Z,2.02
2019-03-08T11:07:45.028Z,2.55
2019-03-08T11:09:11.065Z,2.40
2019-03-08T11:10:36.979Z,2.17
2019-03-08T11:11:48.982Z,2.17
2019-03-08T11:13:10.719Z,2.42
2019-03-08T11:14:33.757Z,2.40
2019-03-08T11:15:56.863Z,2.50
2019-03-08T11:17:15.836Z,2.17
2019-03-08T11:18:42.131Z,2.85
2019-03-08T11:20:03.967Z,4.80
2019-03-08T11:21:25.643Z,3.30
2019-03-08T11:22:51.711Z,2.70
2019-03-08T11:24:20.824Z,4.53
2019-03-08T11:25:55.837Z,6.92
2019-03-08T11:27:24.971Z,3.90
2019-03-08T11:29:03.072Z,3.27
2019-03-08T11:30:32.981Z,4.92
2019-03-08T11:31:56.111Z,5.03
2019-03-08T11:33:09.272Z,4.97
2019-03-08T11:34:32.466Z,4.78
2019-03-08T11:35:50.323Z,3.60
2019-03-08T11:37:25.312Z,2.90
2019-03-08T11:38:34.361Z,3.33
2019-03-08T11:39:43.843Z,3.55
2019-03-08T11:41:06.899Z,2.65
2019-03-08T11:42:30.242Z,3.27
2019-03-08T11:44:02.315Z,2.65
2019-03-08T11:45:19.189Z,2.70
2019-03-08T11:46:45.303Z,3.02
2019-03-08T11:48:11.022Z,3.27
2019-03-08T11:49:31.744Z,2.83
2019-03-08T11:51:09.799Z,2.98
2019-03-08T11:52:30.604Z,3.33
2019-03-08T11:53:56.444Z,3.45
2019-03-08T11:55:20.306Z,3.12
2019-03-08T11:57:02.024Z,3.83
2019-03-08T11:58:31.213Z,3.60
2019-03-08T11:59:57.307Z,3.10
2019-03-08T12:01:20.380Z,3.37
2019-03-08T12:02:46.630Z,3.20
2019-03-08T12:04:08.346Z,3.22
2019-03-08T12:05:19.714Z,3.12
2019-03-08T12:06:42.932Z,3.30
2019-03-08T12:08:09.467Z,3.62
2019-03-08T12:09:32.824Z,3.00
2019-03-08T12:10:55.932Z,3.20
2019-03-08T12:12:22.321Z,3.25
2019-03-08T12:13:41.446Z,3.47
2019-03-08T12:15:16.655Z,3.95
2019-03-08T12:16:38.247Z,3.77
2019-03-08T12:17:55.820Z,3.35
2019-03-08T12:19:21.952Z,3.42
2019-03-08T12:20:54.036Z,3.52
2019-03-08T12:22:15.091Z,3.77
2019-03-08T12:23:34.258Z,3.50
2019-03-08T12:25:03.533Z,3.25
2019-03-08T12:26:25.423Z,3.17
2019-03-08T12:27:51.324Z,3.33
2019-03-08T12:29:20.524Z,3.12
2019-03-08T12:30:43.668Z,3.52
2019-03-08T12:32:05.167Z,3.42
2019-03-08T12:33:40.185Z,2.33
2019-03-08T12:35:08.715Z,3.70
2019-03-08T12:36:30.475Z,3.35
2019-03-08T12:37:53.566Z,3.15
2019-03-08T12:39:12.158Z,3.35
2019-03-08T12:40:30.541Z,3.62
2019-03-08T12:41:41.446Z,3.72
2019-03-08T12:43:08.384Z,3.42
2019-03-08T12:44:37.462Z,3.67
2019-03-08T12:45:58.771Z,3.17
2019-03-08T12:47:30.798Z,3.47
2019-03-08T12:48:56.914Z,3.35
2019-03-08T12:50:21.360Z,3.98
2019-03-08T12:51:44.447Z,3.35
2019-03-08T12:53:02.428Z,3.40
2019-03-08T12:54:37.454Z,2.75
2019-03-08T12:56:00.539Z,2.80
2019-03-08T12:57:18.718Z,3.60
2019-03-08T12:58:38.926Z,4.25
2019-03-08T12:59:50.614Z,3.25
2019-03-08T13:01:11.070Z,3.35
2019-03-08T13:02:32.762Z,2.75
2019-03-08T13:03:55.824Z,2.90
2019-03-08T13:05:17.367Z,3.12
2019-03-08T13:06:40.016Z,4.05
2019-03-08T13:08:10.227Z,2.92
2019-03-08T13:09:32.187Z,3.15
2019-03-08T13:10:36.331Z,2.85
2019-03-08T13:11:40.422Z,3.55
2019-03-08T13:12:44.613Z,3.02
2019-03-08T13:13:48.812Z,3.10
2019-03-08T13:14:52.907Z,2.40
2019-03-08T13:15:57.170Z,3.10
2019-03-08T13:17:01.454Z,3.15
2019-03-08T13:18:05.668Z,2.75
2019-03-08T13:19:09.818Z,2.58
2019-03-08T13:20:15.884Z,2.98
2019-03-08T13:21:20.097Z,2.65
2019-03-08T13:22:24.203Z,2.25
2019-03-08T13:23:28.371Z,2.10
2019-03-08T13:24:32.434Z,2.20
2019-03-08T13:25:36.671Z,3.00
2019-03-08T13:26:40.907Z,2.50
2019-03-08T13:27:45.083Z,2.70
2019-03-08T13:28:49.208Z,1.92
2019-03-08T13:29:53.466Z,2.92
2019-03-08T13:30:57.595Z,2.02
2019-03-08T13:32:01.779Z,2.20
2019-03-08T13:33:06.160Z,2.30
2019-03-08T13:34:10.715Z,2.30
2019-03-08T13:35:14.916Z,2.52
2019-03-08T13:36:19.169Z,2.62
2019-03-08T13:37:23.411Z,2.45
2019-03-08T13:38:27.519Z,2.10
2019-03-08T13:39:31.595Z,2.25
2019-03-08T13:40:35.711Z,2.50
2019-03-08T13:41:39.964Z,2.00
2019-03-08T13:42:44.137Z,2.02
2019-03-08T13:43:48.303Z,2.05
2019-03-08T13:44:52.473Z,2.15
2019-03-08T13:45:56.640Z,1.85
2019-03-08T13:47:00.867Z,2.27
2019-03-08T13:48:05.094Z,1.90
2019-03-08T13:49:09.267Z,1.90
2019-03-08T13:50:13.860Z,2.27
2019-03-08T13:51:18.019Z,2.17
2019-03-08T13:52:22.418Z,1.77
2019-03-08T13:53:26.594Z,1.72
2019-03-08T13:54:30.686Z,1.55
2019-03-08T13:55:34.832Z,1.65
2019-03-08T13:56:38.943Z,2.15
2019-03-08T13:57:43.059Z,1.72
2019-03-08T13:58:47.167Z,1.87
2019-03-08T13:59:51.363Z,2.22
2019-03-08T14:00:55.510Z,2.25
2019-03-08T14:01:59.747Z,1.50
2019-03-08T14:03:04.018Z,1.82
2019-03-08T14:04:08.339Z,1.80
2019-03-08T14:05:12.454Z,1.95
2019-03-08T14:06:16.611Z,1.67
2019-03-08T14:07:21.075Z,1.90
2019-03-08T14:08:25.322Z,2.02
2019-03-08T14:09:29.402Z,2.00
2019-03-08T14:10:33.575Z,2.00
2019-03-08T14:11:37.668Z,1.45
2019-03-08T14:12:41.828Z,2.05
2019-03-08T14:13:45.999Z,1.80
2019-03-08T14:14:50.118Z,1.70
2019-03-08T14:15:54.651Z,1.80
2019-03-08T14:16:58.746Z,1.70
2019-03-08T14:18:02.944Z,1.67
2019-03-08T14:19:07.130Z,1.60
2019-03-08T14:20:14.108Z,1.60
2019-03-08T14:21:18.215Z,1.60
2019-03-08T14:22:22.332Z,1.65
2019-03-08T14:23:26.500Z,1.55
2019-03-08T14:24:30.923Z,1.60
2019-03-08T14:25:35.202Z,1.40
2019-03-08T14:26:39.720Z,1.57
2019-03-08T14:27:43.814Z,1.98
2019-03-08T14:28:48.011Z,1.40
2019-03-08T14:29:55.183Z,1.65
2019-03-08T14:31:15.435Z,1.32
2019-03-08T14:32:21.232Z,1.55
2019-03-08T14:33:26.567Z,1.62
2019-03-08T14:34:30.740Z,1.30
2019-03-08T14:35:34.914Z,1.40
2019-03-08T14:36:39.196Z,2.22
2019-03-08T14:37:44.800Z,2.00
2019-03-08T14:38:48.988Z,1.95
2019-03-08T14:39:53.157Z,1.80
2019-03-08T14:41:01.670Z,3.02
2019-03-08T14:42:27.761Z,2.80
2019-03-08T14:43:43.763Z,1.98
2019-03-08T14:45:07.865Z,1.98
2019-03-08T14:46:43.532Z,1.65
2019-03-08T14:47:50.084Z,1.40
2019-03-08T14:48:54.172Z,1.40
2019-03-08T14:49:59.270Z,1.82
2019-03-08T14:51:04.378Z,1.32
2019-03-08T14:52:08.543Z,1.60
2019-03-08T14:53:12.680Z,1.60
2019-03-08T14:54:16.883Z,1.35
2019-03-08T14:55:22.699Z,1.50
2019-03-08T14:56:26.947Z,1.70
2019-03-08T14:57:31.295Z,1.40
2019-03-08T14:58:36.789Z,1.50
2019-03-08T14:59:41.292Z,1.47
2019-03-08T15:00:45.580Z,1.30
2019-03-08T15:01:49.804Z,1.90
2019-03-08T15:02:53.940Z,1.50
2019-03-08T15:03:58.028Z,1.37
2019-03-08T15:05:10.813Z,1.50
2019-03-08T15:06:08.344Z,1.40
2019-03-08T15:07:12.465Z,1.60
2019-03-08T15:08:17.828Z,1.42
2019-03-08T15:09:22.523Z,1.35
2019-03-08T15:10:26.615Z,1.12
2019-03-08T15:11:30.710Z,1.42
2019-03-08T15:12:37.577Z,1.32
2019-03-08T15:13:40.583Z,1.80
2019-03-08T15:14:44.705Z,1.45
2019-03-08T15:15:48.811Z,1.50
2019-03-08T15:16:53.036Z,1.37
2019-03-08T15:17:57.396Z,1.47
2019-03-08T15:19:03.797Z,1.85
2019-03-08T15:20:15.165Z,1.70
2019-03-08T15:21:14.856Z,1.67
2019-03-08T15:22:18.960Z,1.20
2019-03-08T15:23:23.151Z,1.45
2019-03-08T15:24:27.309Z,1.85
2019-03-08T15:25:31.577Z,1.45
2019-03-08T15:26:35.779Z,1.57
2019-03-08T15:27:39.883Z,1.50
2019-03-08T15:28:43.976Z,1.50
2019-03-08T15:29:54.552Z,1.27
2019-03-08T15:30:53.874Z,1.22
2019-03-08T15:31:58.015Z,1.37
2019-03-08T15:33:02.139Z,1.27
2019-03-08T15:34:06.300Z,1.10
2019-03-08T15:35:10.948Z,1.47
2019-03-08T15:36:15.029Z,1.27
2019-03-08T15:37:19.365Z,1.50
2019-03-08T15:38:23.632Z,1.30